sensor_id;sensor_type;location;lat;lon;timestamp;P1;durP1;ratioP1;P2;durP2;ratioP2
20491;SDS011;10404;51.468;6.762;2023-07-24T00:00:50;3.35;;;2.20;;
20491;SDS011;10404;51.468;6.762;2023-07-24T00:03:15;2.00;;;1.63;;
20491;SDS011;10404;51.468;6.762;2023-07-24T00:05:41;2.90;;;2.20;;
20491;SDS011;10404;51.468;6.762;2023-07-24T00:08:07;3.00;;;2.05;;
20491;SDS011;10404;51.468;6.762;2023-07-24T00:10:32;3.03;;;1.80;;
20491;SDS011;10404;51.468;6.762;2023-07-24T00:12:58;2.70;;;1.80;;
20491;SDS011;10404;51.468;6.762;2023-07-24T00:15:23;2.30;;;2.08;;
20491;SDS011;10404;51.468;6.762;2023-07-24T00:17:49;2.17;;;1.40;;
20491;SDS011;10404;51.468;6.762;2023-07-24T00:20:15;2.47;;;1.63;;
20491;SDS011;10404;51.468;6.762;2023-07-24T00:22:40;2.67;;;1.90;;
20491;SDS011;10404;51.468;6.762;2023-07-24T00:25:06;2.25;;;1.90;;
20491;SDS011;10404;51.468;6.762;2023-07-24T00:27:33;2.58;;;1.73;;
20491;SDS011;10404;51.468;6.762;2023-07-24T00:29:59;3.55;;;2.10;;
20491;SDS011;10404;51.468;6.762;2023-07-24T00:32:25;2.85;;;2.22;;
20491;SDS011;10404;51.468;6.762;2023-07-24T00:34:50;2.35;;;1.70;;
20491;SDS011;10404;51.468;6.762;2023-07-24T00:37:16;3.47;;;2.05;;
20491;SDS011;10404;51.468;6.762;2023-07-24T00:39:42;4.13;;;2.10;;
20491;SDS011;10404;51.468;6.762;2023-07-24T00:42:08;2.97;;;1.80;;
20491;SDS011;10404;51.468;6.762;2023-07-24T00:44:33;2.95;;;1.90;;
20491;SDS011;10404;51.468;6.762;2023-07-24T00:46:59;2.60;;;1.63;;
20491;SDS011;10404;51.468;6.762;2023-07-24T00:49:25;2.08;;;1.58;;
20491;SDS011;10404;51.468;6.762;2023-07-24T00:51:51;2.58;;;1.58;;
20491;SDS011;10404;51.468;6.762;2023-07-24T00:54:17;2.58;;;1.75;;
20491;SDS011;10404;51.468;6.762;2023-07-24T00:56:44;3.13;;;2.03;;
20491;SDS011;10404;51.468;6.762;2023-07-24T00:59:10;2.42;;;2.00;;
20491;SDS011;10404;51.468;6.762;2023-07-24T01:01:37;2.47;;;1.80;;
20491;SDS011;10404;51.468;6.762;2023-07-24T01:04:04;2.60;;;2.28;;
20491;SDS011;10404;51.468;6.762;2023-07-24T01:06:32;2.72;;;2.15;;
20491;SDS011;10404;51.468;6.762;2023-07-24T01:08:57;3.15;;;2.03;;
20491;SDS011;10404;51.468;6.762;2023-07-24T01:12:07;3.60;;;2.08;;
20491;SDS011;10404;51.468;6.762;2023-07-24T01:14:22;2.92;;;1.83;;
20491;SDS011;10404;51.468;6.762;2023-07-24T01:17:12;1.85;;;1.50;;
20491;SDS011;10404;51.468;6.762;2023-07-24T01:19:48;2.65;;;1.83;;
20491;SDS011;10404;51.468;6.762;2023-07-24T01:22:24;2.40;;;1.80;;
20491;SDS011;10404;51.468;6.762;2023-07-24T01:27:44;2.38;;;1.70;;
20491;SDS011;10404;51.468;6.762;2023-07-24T01:30:10;2.78;;;1.60;;
20491;SDS011;10404;51.468;6.762;2023-07-24T01:32:38;2.92;;;1.67;;
20491;SDS011;10404;51.468;6.762;2023-07-24T01:35:04;2.75;;;1.63;;
20491;SDS011;10404;51.468;6.762;2023-07-24T01:37:31;2.53;;;1.73;;
20491;SDS011;10404;51.468;6.762;2023-07-24T01:39:57;2.08;;;1.75;;
20491;SDS011;10404;51.468;6.762;2023-07-24T01:42:23;2.38;;;1.88;;
20491;SDS011;10404;51.468;6.762;2023-07-24T01:44:54;1.88;;;1.65;;
20491;SDS011;10404;51.468;6.762;2023-07-24T01:47:20;2.72;;;1.65;;
20491;SDS011;10404;51.468;6.762;2023-07-24T01:49:46;2.42;;;1.70;;
20491;SDS011;10404;51.468;6.762;2023-07-24T01:52:12;3.03;;;1.70;;
20491;SDS011;10404;51.468;6.762;2023-07-24T01:54:38;2.85;;;1.70;;
20491;SDS011;10404;51.468;6.762;2023-07-24T01:57:04;3.08;;;1.90;;
20491;SDS011;10404;51.468;6.762;2023-07-24T01:59:30;2.28;;;1.60;;
20491;SDS011;10404;51.468;6.762;2023-07-24T02:01:55;3.35;;;1.80;;
20491;SDS011;10404;51.468;6.762;2023-07-24T02:04:21;2.58;;;1.88;;
20491;SDS011;10404;51.468;6.762;2023-07-24T02:06:50;2.40;;;1.40;;
20491;SDS011;10404;51.468;6.762;2023-07-24T02:09:19;2.42;;;1.60;;
20491;SDS011;10404;51.468;6.762;2023-07-24T02:11:45;2.92;;;1.73;;
20491;SDS011;10404;51.468;6.762;2023-07-24T02:14:11;2.25;;;1.95;;
20491;SDS011;10404;51.468;6.762;2023-07-24T02:16:38;2.95;;;1.70;;
20491;SDS011;10404;51.468;6.762;2023-07-24T02:19:04;2.33;;;1.90;;
20491;SDS011;10404;51.468;6.762;2023-07-24T02:21:30;3.13;;;1.77;;
20491;SDS011;10404;51.468;6.762;2023-07-24T02:23:56;3.03;;;1.67;;
20491;SDS011;10404;51.468;6.762;2023-07-24T02:26:22;2.53;;;1.80;;
20491;SDS011;10404;51.468;6.762;2023-07-24T02:28:48;2.53;;;1.63;;
20491;SDS011;10404;51.468;6.762;2023-07-24T02:31:13;2.78;;;1.75;;
20491;SDS011;10404;51.468;6.762;2023-07-24T02:33:39;3.45;;;2.00;;
20491;SDS011;10404;51.468;6.762;2023-07-24T02:36:05;2.40;;;1.95;;
20491;SDS011;10404;51.468;6.762;2023-07-24T02:38:30;2.15;;;1.73;;
20491;SDS011;10404;51.468;6.762;2023-07-24T02:40:56;2.97;;;1.90;;
20491;SDS011;10404;51.468;6.762;2023-07-24T02:43:22;2.75;;;2.05;;
20491;SDS011;10404;51.468;6.762;2023-07-24T02:45:47;2.35;;;1.65;;
20491;SDS011;10404;51.468;6.762;2023-07-24T02:48:13;2.58;;;1.83;;
20491;SDS011;10404;51.468;6.762;2023-07-24T02:50:39;2.38;;;1.73;;
20491;SDS011;10404;51.468;6.762;2023-07-24T02:53:04;4.15;;;1.60;;
20491;SDS011;10404;51.468;6.762;2023-07-24T02:55:30;2.30;;;1.52;;
20491;SDS011;10404;51.468;6.762;2023-07-24T02:57:56;2.55;;;1.50;;
20491;SDS011;10404;51.468;6.762;2023-07-24T03:00:22;2.35;;;1.88;;
20491;SDS011;10404;51.468;6.762;2023-07-24T03:02:47;2.60;;;1.70;;
20491;SDS011;10404;51.468;6.762;2023-07-24T03:05:13;3.42;;;2.03;;
20491;SDS011;10404;51.468;6.762;2023-07-24T03:07:38;2.50;;;1.80;;
20491;SDS011;10404;51.468;6.762;2023-07-24T03:10:04;2.72;;;1.77;;
20491;SDS011;10404;51.468;6.762;2023-07-24T03:12:30;3.72;;;2.08;;
20491;SDS011;10404;51.468;6.762;2023-07-24T03:14:56;2.47;;;1.65;;
20491;SDS011;10404;51.468;6.762;2023-07-24T03:17:22;3.55;;;1.70;;
20491;SDS011;10404;51.468;6.762;2023-07-24T03:19:48;3.17;;;2.15;;
20491;SDS011;10404;51.468;6.762;2023-07-24T03:22:14;3.20;;;1.90;;
20491;SDS011;10404;51.468;6.762;2023-07-24T03:24:40;3.20;;;1.95;;
20491;SDS011;10404;51.468;6.762;2023-07-24T03:27:05;3.30;;;1.95;;
20491;SDS011;10404;51.468;6.762;2023-07-24T03:29:31;3.10;;;2.08;;
20491;SDS011;10404;51.468;6.762;2023-07-24T03:31:57;4.00;;;2.20;;
20491;SDS011;10404;51.468;6.762;2023-07-24T03:34:22;3.72;;;2.20;;
20491;SDS011;10404;51.468;6.762;2023-07-24T03:36:48;3.55;;;1.92;;
20491;SDS011;10404;51.468;6.762;2023-07-24T03:39:14;3.80;;;2.20;;
20491;SDS011;10404;51.468;6.762;2023-07-24T03:41:40;3.20;;;2.25;;
20491;SDS011;10404;51.468;6.762;2023-07-24T03:44:06;3.45;;;2.08;;
20491;SDS011;10404;51.468;6.762;2023-07-24T03:46:32;3.72;;;2.10;;
20491;SDS011;10404;51.468;6.762;2023-07-24T03:48:58;3.35;;;1.90;;
20491;SDS011;10404;51.468;6.762;2023-07-24T03:51:23;3.40;;;2.05;;
20491;SDS011;10404;51.468;6.762;2023-07-24T03:53:49;3.75;;;2.15;;
20491;SDS011;10404;51.468;6.762;2023-07-24T03:56:15;3.45;;;2.22;;
20491;SDS011;10404;51.468;6.762;2023-07-24T03:58:41;3.25;;;2.25;;
20491;SDS011;10404;51.468;6.762;2023-07-24T04:01:07;3.13;;;2.10;;
20491;SDS011;10404;51.468;6.762;2023-07-24T04:03:33;3.58;;;2.17;;
20491;SDS011;10404;51.468;6.762;2023-07-24T04:05:59;3.85;;;2.30;;
20491;SDS011;10404;51.468;6.762;2023-07-24T04:08:24;4.00;;;2.75;;
20491;SDS011;10404;51.468;6.762;2023-07-24T04:10:50;3.33;;;2.13;;
20491;SDS011;10404;51.468;6.762;2023-07-24T04:13:16;4.20;;;2.47;;
20491;SDS011;10404;51.468;6.762;2023-07-24T04:15:41;3.72;;;2.33;;
20491;SDS011;10404;51.468;6.762;2023-07-24T04:18:07;4.03;;;2.20;;
20491;SDS011;10404;51.468;6.762;2023-07-24T04:20:32;3.13;;;2.08;;
20491;SDS011;10404;51.468;6.762;2023-07-24T04:22:58;3.75;;;2.17;;
20491;SDS011;10404;51.468;6.762;2023-07-24T04:25:23;3.70;;;2.15;;
20491;SDS011;10404;51.468;6.762;2023-07-24T04:27:49;3.50;;;2.50;;
20491;SDS011;10404;51.468;6.762;2023-07-24T04:30:15;3.90;;;2.47;;
20491;SDS011;10404;51.468;6.762;2023-07-24T04:32:41;3.95;;;2.60;;
20491;SDS011;10404;51.468;6.762;2023-07-24T04:35:07;4.70;;;2.25;;
20491;SDS011;10404;51.468;6.762;2023-07-24T04:37:33;5.53;;;2.92;;
20491;SDS011;10404;51.468;6.762;2023-07-24T04:39:59;3.30;;;2.42;;
20491;SDS011;10404;51.468;6.762;2023-07-24T04:42:24;5.50;;;2.80;;
20491;SDS011;10404;51.468;6.762;2023-07-24T04:44:50;3.50;;;2.38;;
20491;SDS011;10404;51.468;6.762;2023-07-24T04:47:16;5.43;;;2.92;;
20491;SDS011;10404;51.468;6.762;2023-07-24T04:49:42;3.47;;;2.40;;
20491;SDS011;10404;51.468;6.762;2023-07-24T04:52:08;5.13;;;3.28;;
20491;SDS011;10404;51.468;6.762;2023-07-24T04:54:33;4.60;;;3.20;;
20491;SDS011;10404;51.468;6.762;2023-07-24T04:56:59;6.10;;;3.20;;
20491;SDS011;10404;51.468;6.762;2023-07-24T04:59:24;4.38;;;2.90;;
20491;SDS011;10404;51.468;6.762;2023-07-24T05:01:50;4.00;;;2.60;;
20491;SDS011;10404;51.468;6.762;2023-07-24T05:04:15;3.83;;;2.67;;
20491;SDS011;10404;51.468;6.762;2023-07-24T05:06:41;5.70;;;3.08;;
20491;SDS011;10404;51.468;6.762;2023-07-24T05:09:07;5.43;;;2.58;;
20491;SDS011;10404;51.468;6.762;2023-07-24T05:11:32;4.57;;;2.67;;
20491;SDS011;10404;51.468;6.762;2023-07-24T05:13:58;5.50;;;2.95;;
20491;SDS011;10404;51.468;6.762;2023-07-24T05:16:24;4.43;;;2.97;;
20491;SDS011;10404;51.468;6.762;2023-07-24T05:18:49;4.57;;;2.45;;
20491;SDS011;10404;51.468;6.762;2023-07-24T05:21:15;5.45;;;3.08;;
20491;SDS011;10404;51.468;6.762;2023-07-24T05:23:40;4.10;;;2.63;;
20491;SDS011;10404;51.468;6.762;2023-07-24T05:26:06;6.00;;;2.95;;
20491;SDS011;10404;51.468;6.762;2023-07-24T05:28:32;4.65;;;3.33;;
20491;SDS011;10404;51.468;6.762;2023-07-24T05:31:02;5.47;;;3.35;;
20491;SDS011;10404;51.468;6.762;2023-07-24T05:33:29;6.72;;;3.38;;
20491;SDS011;10404;51.468;6.762;2023-07-24T05:36:02;6.05;;;3.08;;
20491;SDS011;10404;51.468;6.762;2023-07-24T05:38:28;4.78;;;3.28;;
20491;SDS011;10404;51.468;6.762;2023-07-24T05:40:55;4.80;;;3.20;;
20491;SDS011;10404;51.468;6.762;2023-07-24T05:43:25;3.92;;;2.90;;
20491;SDS011;10404;51.468;6.762;2023-07-24T05:45:52;5.32;;;3.10;;
20491;SDS011;10404;51.468;6.762;2023-07-24T05:48:19;4.55;;;3.10;;
20491;SDS011;10404;51.468;6.762;2023-07-24T05:50:45;5.03;;;3.15;;
20491;SDS011;10404;51.468;6.762;2023-07-24T05:53:11;5.05;;;2.97;;
20491;SDS011;10404;51.468;6.762;2023-07-24T05:55:36;5.47;;;3.05;;
20491;SDS011;10404;51.468;6.762;2023-07-24T05:58:02;3.85;;;2.95;;
20491;SDS011;10404;51.468;6.762;2023-07-24T06:00:27;4.20;;;2.65;;
20491;SDS011;10404;51.468;6.762;2023-07-24T06:02:53;4.22;;;3.20;;
20491;SDS011;10404;51.468;6.762;2023-07-24T06:05:19;7.53;;;3.42;;
20491;SDS011;10404;51.468;6.762;2023-07-24T06:07:45;4.53;;;2.90;;
20491;SDS011;10404;51.468;6.762;2023-07-24T06:10:11;4.97;;;3.33;;
20491;SDS011;10404;51.468;6.762;2023-07-24T06:12:37;4.05;;;3.03;;
20491;SDS011;10404;51.468;6.762;2023-07-24T06:15:03;4.80;;;3.60;;
20491;SDS011;10404;51.468;6.762;2023-07-24T06:17:29;6.20;;;3.08;;
20491;SDS011;10404;51.468;6.762;2023-07-24T06:19:55;4.97;;;3.00;;
20491;SDS011;10404;51.468;6.762;2023-07-24T06:22:21;4.30;;;3.15;;
20491;SDS011;10404;51.468;6.762;2023-07-24T06:24:47;4.15;;;3.00;;
20491;SDS011;10404;51.468;6.762;2023-07-24T06:27:13;4.93;;;3.30;;
20491;SDS011;10404;51.468;6.762;2023-07-24T06:29:39;5.82;;;3.38;;
20491;SDS011;10404;51.468;6.762;2023-07-24T06:32:04;4.60;;;2.70;;
20491;SDS011;10404;51.468;6.762;2023-07-24T06:34:30;5.05;;;3.50;;
20491;SDS011;10404;51.468;6.762;2023-07-24T06:36:56;5.25;;;3.00;;
20491;SDS011;10404;51.468;6.762;2023-07-24T06:39:22;6.32;;;3.85;;
20491;SDS011;10404;51.468;6.762;2023-07-24T06:41:47;5.88;;;3.15;;
20491;SDS011;10404;51.468;6.762;2023-07-24T06:44:13;4.75;;;2.97;;
20491;SDS011;10404;51.468;6.762;2023-07-24T06:46:38;4.93;;;3.28;;
20491;SDS011;10404;51.468;6.762;2023-07-24T06:49:04;5.97;;;3.88;;
20491;SDS011;10404;51.468;6.762;2023-07-24T06:51:30;6.25;;;3.55;;
20491;SDS011;10404;51.468;6.762;2023-07-24T06:53:55;5.63;;;3.95;;
20491;SDS011;10404;51.468;6.762;2023-07-24T06:56:21;7.07;;;3.38;;
20491;SDS011;10404;51.468;6.762;2023-07-24T06:58:47;6.25;;;3.85;;
20491;SDS011;10404;51.468;6.762;2023-07-24T07:01:12;4.47;;;3.10;;
20491;SDS011;10404;51.468;6.762;2023-07-24T07:03:38;5.53;;;3.42;;
20491;SDS011;10404;51.468;6.762;2023-07-24T07:06:03;5.28;;;3.50;;
20491;SDS011;10404;51.468;6.762;2023-07-24T07:08:32;6.18;;;3.97;;
20491;SDS011;10404;51.468;6.762;2023-07-24T07:10:58;4.65;;;2.72;;
20491;SDS011;10404;51.468;6.762;2023-07-24T07:13:24;5.60;;;3.72;;
20491;SDS011;10404;51.468;6.762;2023-07-24T07:15:50;4.57;;;3.47;;
20491;SDS011;10404;51.468;6.762;2023-07-24T07:18:16;4.82;;;3.63;;
20491;SDS011;10404;51.468;6.762;2023-07-24T07:20:48;5.68;;;3.17;;
20491;SDS011;10404;51.468;6.762;2023-07-24T07:23:15;4.75;;;3.03;;
20491;SDS011;10404;51.468;6.762;2023-07-24T07:25:40;4.57;;;2.88;;
20491;SDS011;10404;51.468;6.762;2023-07-24T07:28:08;5.00;;;3.53;;
20491;SDS011;10404;51.468;6.762;2023-07-24T07:30:34;4.60;;;3.58;;
20491;SDS011;10404;51.468;6.762;2023-07-24T07:33:00;4.63;;;3.03;;
20491;SDS011;10404;51.468;6.762;2023-07-24T07:35:26;5.13;;;3.28;;
20491;SDS011;10404;51.468;6.762;2023-07-24T07:37:51;4.50;;;3.20;;
20491;SDS011;10404;51.468;6.762;2023-07-24T07:40:17;4.32;;;3.08;;
20491;SDS011;10404;51.468;6.762;2023-07-24T07:42:43;4.07;;;2.75;;
20491;SDS011;10404;51.468;6.762;2023-07-24T07:45:10;4.78;;;2.33;;
20491;SDS011;10404;51.468;6.762;2023-07-24T07:47:35;3.85;;;2.53;;
20491;SDS011;10404;51.468;6.762;2023-07-24T07:50:01;5.43;;;2.42;;
20491;SDS011;10404;51.468;6.762;2023-07-24T07:52:27;4.18;;;3.20;;
20491;SDS011;10404;51.468;6.762;2023-07-24T07:54:53;5.07;;;3.17;;
20491;SDS011;10404;51.468;6.762;2023-07-24T07:57:18;3.83;;;2.78;;
20491;SDS011;10404;51.468;6.762;2023-07-24T07:59:44;4.95;;;2.88;;
20491;SDS011;10404;51.468;6.762;2023-07-24T08:02:10;4.28;;;3.30;;
20491;SDS011;10404;51.468;6.762;2023-07-24T08:04:35;3.17;;;2.80;;
20491;SDS011;10404;51.468;6.762;2023-07-24T08:07:01;4.00;;;2.58;;
20491;SDS011;10404;51.468;6.762;2023-07-24T08:09:27;4.18;;;3.17;;
20491;SDS011;10404;51.468;6.762;2023-07-24T08:11:53;3.50;;;2.45;;
20491;SDS011;10404;51.468;6.762;2023-07-24T08:14:19;3.25;;;2.40;;
20491;SDS011;10404;51.468;6.762;2023-07-24T08:16:44;2.88;;;2.10;;
20491;SDS011;10404;51.468;6.762;2023-07-24T08:19:13;3.65;;;2.50;;
20491;SDS011;10404;51.468;6.762;2023-07-24T08:21:39;4.03;;;2.20;;
20491;SDS011;10404;51.468;6.762;2023-07-24T08:24:05;2.85;;;2.40;;
20491;SDS011;10404;51.468;6.762;2023-07-24T08:26:31;3.65;;;2.05;;
20491;SDS011;10404;51.468;6.762;2023-07-24T08:28:57;2.95;;;2.17;;
20491;SDS011;10404;51.468;6.762;2023-07-24T08:31:22;2.22;;;1.98;;
20491;SDS011;10404;51.468;6.762;2023-07-24T08:33:48;3.70;;;2.42;;
20491;SDS011;10404;51.468;6.762;2023-07-24T08:36:13;3.22;;;2.05;;
20491;SDS011;10404;51.468;6.762;2023-07-24T08:38:39;2.95;;;2.17;;
20491;SDS011;10404;51.468;6.762;2023-07-24T08:43:33;3.95;;;2.20;;
20491;SDS011;10404;51.468;6.762;2023-07-24T08:46:00;3.30;;;1.90;;
20491;SDS011;10404;51.468;6.762;2023-07-24T08:48:30;2.60;;;2.05;;
20491;SDS011;10404;51.468;6.762;2023-07-24T08:51:00;2.22;;;1.60;;
20491;SDS011;10404;51.468;6.762;2023-07-24T08:53:31;2.33;;;2.05;;
20491;SDS011;10404;51.468;6.762;2023-07-24T08:55:58;2.05;;;1.52;;
20491;SDS011;10404;51.468;6.762;2023-07-24T08:58:24;2.50;;;1.77;;
20491;SDS011;10404;51.468;6.762;2023-07-24T09:00:50;2.70;;;2.08;;
20491;SDS011;10404;51.468;6.762;2023-07-24T09:03:17;2.90;;;1.70;;
20491;SDS011;10404;51.468;6.762;2023-07-24T09:05:46;3.50;;;1.77;;
20491;SDS011;10404;51.468;6.762;2023-07-24T09:08:12;2.97;;;2.05;;
20491;SDS011;10404;51.468;6.762;2023-07-24T09:10:38;3.50;;;1.67;;
20491;SDS011;10404;51.468;6.762;2023-07-24T09:13:04;3.30;;;1.63;;
20491;SDS011;10404;51.468;6.762;2023-07-24T09:15:39;2.50;;;1.38;;
20491;SDS011;10404;51.468;6.762;2023-07-24T09:18:06;3.35;;;2.05;;
20491;SDS011;10404;51.468;6.762;2023-07-24T09:20:37;2.75;;;1.80;;
20491;SDS011;10404;51.468;6.762;2023-07-24T09:23:04;1.70;;;1.33;;
20491;SDS011;10404;51.468;6.762;2023-07-24T09:25:30;2.08;;;1.73;;
20491;SDS011;10404;51.468;6.762;2023-07-24T09:27:59;2.13;;;1.77;;
20491;SDS011;10404;51.468;6.762;2023-07-24T09:32:51;1.92;;;1.42;;
20491;SDS011;10404;51.468;6.762;2023-07-24T09:35:19;2.22;;;1.70;;
20491;SDS011;10404;51.468;6.762;2023-07-24T09:37:47;2.03;;;1.58;;
20491;SDS011;10404;51.468;6.762;2023-07-24T09:40:14;2.75;;;1.67;;
20491;SDS011;10404;51.468;6.762;2023-07-24T09:42:40;2.30;;;1.58;;
20491;SDS011;10404;51.468;6.762;2023-07-24T09:45:06;2.08;;;1.33;;
20491;SDS011;10404;51.468;6.762;2023-07-24T09:47:35;3.00;;;1.63;;
20491;SDS011;10404;51.468;6.762;2023-07-24T09:50:04;3.45;;;1.50;;
20491;SDS011;10404;51.468;6.762;2023-07-24T09:52:30;2.85;;;2.00;;
20491;SDS011;10404;51.468;6.762;2023-07-24T09:57:30;3.10;;;1.58;;
20491;SDS011;10404;51.468;6.762;2023-07-24T09:59:57;2.45;;;1.67;;
20491;SDS011;10404;51.468;6.762;2023-07-24T10:02:23;2.17;;;1.67;;
20491;SDS011;10404;51.468;6.762;2023-07-24T10:04:49;2.97;;;1.70;;
20491;SDS011;10404;51.468;6.762;2023-07-24T10:07:15;2.75;;;1.90;;
20491;SDS011;10404;51.468;6.762;2023-07-24T10:09:44;2.83;;;1.75;;
20491;SDS011;10404;51.468;6.762;2023-07-24T10:12:10;2.45;;;1.40;;
20491;SDS011;10404;51.468;6.762;2023-07-24T10:14:36;2.10;;;1.80;;
20491;SDS011;10404;51.468;6.762;2023-07-24T10:17:03;2.55;;;1.90;;
20491;SDS011;10404;51.468;6.762;2023-07-24T10:19:35;2.22;;;1.77;;
20491;SDS011;10404;51.468;6.762;2023-07-24T10:24:29;2.13;;;1.90;;
20491;SDS011;10404;51.468;6.762;2023-07-24T10:26:56;3.08;;;1.75;;
20491;SDS011;10404;51.468;6.762;2023-07-24T10:29:23;3.58;;;2.08;;
20491;SDS011;10404;51.468;6.762;2023-07-24T10:31:52;2.65;;;2.40;;
20491;SDS011;10404;51.468;6.762;2023-07-24T10:34:19;3.28;;;2.25;;
20491;SDS011;10404;51.468;6.762;2023-07-24T10:36:45;3.13;;;2.30;;
20491;SDS011;10404;51.468;6.762;2023-07-24T10:39:14;3.42;;;2.20;;
20491;SDS011;10404;51.468;6.762;2023-07-24T10:41:41;3.50;;;2.20;;
20491;SDS011;10404;51.468;6.762;2023-07-24T10:44:06;3.08;;;1.98;;
20491;SDS011;10404;51.468;6.762;2023-07-24T10:46:50;3.17;;;2.20;;
20491;SDS011;10404;51.468;6.762;2023-07-24T10:49:16;2.80;;;2.00;;
20491;SDS011;10404;51.468;6.762;2023-07-24T10:51:47;2.25;;;2.05;;
20491;SDS011;10404;51.468;6.762;2023-07-24T10:54:20;3.08;;;2.20;;
20491;SDS011;10404;51.468;6.762;2023-07-24T10:56:46;2.15;;;1.85;;
20491;SDS011;10404;51.468;6.762;2023-07-24T10:59:12;2.38;;;2.13;;
20491;SDS011;10404;51.468;6.762;2023-07-24T11:01:39;2.67;;;2.13;;
20491;SDS011;10404;51.468;6.762;2023-07-24T11:04:06;3.05;;;2.33;;
20491;SDS011;10404;51.468;6.762;2023-07-24T11:06:32;2.67;;;2.47;;
20491;SDS011;10404;51.468;6.762;2023-07-24T11:08:59;3.97;;;2.42;;
20491;SDS011;10404;51.468;6.762;2023-07-24T11:11:32;2.67;;;2.35;;
20491;SDS011;10404;51.468;6.762;2023-07-24T11:13:58;3.47;;;2.47;;
20491;SDS011;10404;51.468;6.762;2023-07-24T11:16:26;3.55;;;2.42;;
20491;SDS011;10404;51.468;6.762;2023-07-24T11:18:52;3.90;;;2.65;;
20491;SDS011;10404;51.468;6.762;2023-07-24T11:21:18;3.60;;;2.92;;
20491;SDS011;10404;51.468;6.762;2023-07-24T11:23:47;3.25;;;2.40;;
20491;SDS011;10404;51.468;6.762;2023-07-24T11:26:23;3.30;;;2.58;;
20491;SDS011;10404;51.468;6.762;2023-07-24T11:28:50;3.67;;;2.60;;
20491;SDS011;10404;51.468;6.762;2023-07-24T11:31:16;3.38;;;2.58;;
20491;SDS011;10404;51.468;6.762;2023-07-24T11:33:45;3.30;;;2.72;;
20491;SDS011;10404;51.468;6.762;2023-07-24T11:36:15;4.80;;;2.58;;
20491;SDS011;10404;51.468;6.762;2023-07-24T11:38:41;3.80;;;2.58;;
20491;SDS011;10404;51.468;6.762;2023-07-24T11:41:08;4.10;;;2.78;;
20491;SDS011;10404;51.468;6.762;2023-07-24T11:43:34;3.25;;;2.88;;
20491;SDS011;10404;51.468;6.762;2023-07-24T11:45:59;3.70;;;2.65;;
20491;SDS011;10404;51.468;6.762;2023-07-24T11:48:25;3.70;;;2.85;;
20491;SDS011;10404;51.468;6.762;2023-07-24T11:50:54;3.30;;;2.90;;
20491;SDS011;10404;51.468;6.762;2023-07-24T11:53:24;3.38;;;2.63;;
20491;SDS011;10404;51.468;6.762;2023-07-24T11:55:52;3.38;;;2.55;;
20491;SDS011;10404;51.468;6.762;2023-07-24T11:58:18;3.85;;;2.75;;
20491;SDS011;10404;51.468;6.762;2023-07-24T12:00:46;4.18;;;3.03;;
20491;SDS011;10404;51.468;6.762;2023-07-24T12:03:13;3.33;;;3.03;;
20491;SDS011;10404;51.468;6.762;2023-07-24T12:08:06;4.15;;;2.80;;
20491;SDS011;10404;51.468;6.762;2023-07-24T12:10:35;4.18;;;3.00;;
20491;SDS011;10404;51.468;6.762;2023-07-24T12:13:04;3.50;;;2.58;;
20491;SDS011;10404;51.468;6.762;2023-07-24T12:15:30;3.45;;;2.33;;
20491;SDS011;10404;51.468;6.762;2023-07-24T12:17:56;3.38;;;2.40;;
20491;SDS011;10404;51.468;6.762;2023-07-24T12:20:22;3.85;;;2.70;;
20491;SDS011;10404;51.468;6.762;2023-07-24T12:22:48;3.03;;;2.28;;
20491;SDS011;10404;51.468;6.762;2023-07-24T12:25:14;3.42;;;2.47;;
20491;SDS011;10404;51.468;6.762;2023-07-24T12:27:40;4.05;;;2.63;;
20491;SDS011;10404;51.468;6.762;2023-07-24T12:30:07;3.42;;;3.05;;
20491;SDS011;10404;51.468;6.762;2023-07-24T12:32:33;4.55;;;2.92;;
20491;SDS011;10404;51.468;6.762;2023-07-24T12:34:59;4.28;;;3.05;;
20491;SDS011;10404;51.468;6.762;2023-07-24T12:37:25;3.78;;;3.03;;
20491;SDS011;10404;51.468;6.762;2023-07-24T12:39:51;4.93;;;3.22;;
20491;SDS011;10404;51.468;6.762;2023-07-24T12:42:17;4.30;;;3.33;;
20491;SDS011;10404;51.468;6.762;2023-07-24T12:44:43;4.28;;;2.97;;
20491;SDS011;10404;51.468;6.762;2023-07-24T12:47:09;3.30;;;2.60;;
20491;SDS011;10404;51.468;6.762;2023-07-24T12:49:35;4.45;;;3.08;;
20491;SDS011;10404;51.468;6.762;2023-07-24T12:52:02;3.22;;;2.88;;
20491;SDS011;10404;51.468;6.762;2023-07-24T12:54:28;3.78;;;2.50;;
20491;SDS011;10404;51.468;6.762;2023-07-24T12:56:54;3.63;;;3.08;;
20491;SDS011;10404;51.468;6.762;2023-07-24T12:59:19;3.83;;;2.90;;
20491;SDS011;10404;51.468;6.762;2023-07-24T13:01:45;3.58;;;2.35;;
20491;SDS011;10404;51.468;6.762;2023-07-24T13:04:11;4.03;;;2.67;;
20491;SDS011;10404;51.468;6.762;2023-07-24T13:06:37;3.80;;;2.90;;
20491;SDS011;10404;51.468;6.762;2023-07-24T13:09:03;3.78;;;2.28;;
20491;SDS011;10404;51.468;6.762;2023-07-24T13:11:30;3.08;;;2.55;;
20491;SDS011;10404;51.468;6.762;2023-07-24T13:13:55;3.63;;;3.00;;
20491;SDS011;10404;51.468;6.762;2023-07-24T13:16:21;2.90;;;2.50;;
20491;SDS011;10404;51.468;6.762;2023-07-24T13:18:48;2.72;;;2.22;;
20491;SDS011;10404;51.468;6.762;2023-07-24T13:21:13;2.85;;;2.00;;
20491;SDS011;10404;51.468;6.762;2023-07-24T13:23:42;3.70;;;2.75;;
20491;SDS011;10404;51.468;6.762;2023-07-24T13:26:08;2.80;;;2.50;;
20491;SDS011;10404;51.468;6.762;2023-07-24T13:28:35;3.10;;;2.80;;
20491;SDS011;10404;51.468;6.762;2023-07-24T13:31:17;3.13;;;2.30;;
20491;SDS011;10404;51.468;6.762;2023-07-24T13:33:44;3.22;;;2.70;;
20491;SDS011;10404;51.468;6.762;2023-07-24T13:36:10;3.28;;;2.45;;
20491;SDS011;10404;51.468;6.762;2023-07-24T13:38:36;3.05;;;2.40;;
20491;SDS011;10404;51.468;6.762;2023-07-24T13:41:02;2.53;;;2.20;;
20491;SDS011;10404;51.468;6.762;2023-07-24T13:43:29;3.17;;;2.28;;
20491;SDS011;10404;51.468;6.762;2023-07-24T13:45:56;3.45;;;2.22;;
20491;SDS011;10404;51.468;6.762;2023-07-24T13:48:22;3.17;;;1.98;;
20491;SDS011;10404;51.468;6.762;2023-07-24T13:50:49;2.70;;;2.10;;
20491;SDS011;10404;51.468;6.762;2023-07-24T13:53:15;2.78;;;2.05;;
20491;SDS011;10404;51.468;6.762;2023-07-24T13:55:41;2.92;;;2.20;;
20491;SDS011;10404;51.468;6.762;2023-07-24T13:58:06;2.75;;;2.17;;
20491;SDS011;10404;51.468;6.762;2023-07-24T14:00:32;3.15;;;2.05;;
20491;SDS011;10404;51.468;6.762;2023-07-24T14:02:57;3.17;;;2.17;;
20491;SDS011;10404;51.468;6.762;2023-07-24T14:05:23;2.33;;;1.98;;
20491;SDS011;10404;51.468;6.762;2023-07-24T14:07:49;2.95;;;1.90;;
20491;SDS011;10404;51.468;6.762;2023-07-24T14:10:14;3.05;;;2.55;;
20491;SDS011;10404;51.468;6.762;2023-07-24T14:12:40;3.22;;;2.47;;
20491;SDS011;10404;51.468;6.762;2023-07-24T14:15:06;2.35;;;2.13;;
20491;SDS011;10404;51.468;6.762;2023-07-24T14:17:32;3.63;;;2.40;;
20491;SDS011;10404;51.468;6.762;2023-07-24T14:19:59;2.65;;;1.90;;
20491;SDS011;10404;51.468;6.762;2023-07-24T14:22:26;2.40;;;1.98;;
20491;SDS011;10404;51.468;6.762;2023-07-24T14:24:51;2.75;;;2.03;;
20491;SDS011;10404;51.468;6.762;2023-07-24T14:27:17;2.65;;;2.10;;
20491;SDS011;10404;51.468;6.762;2023-07-24T14:29:42;3.03;;;2.55;;
20491;SDS011;10404;51.468;6.762;2023-07-24T14:32:08;2.55;;;2.30;;
20491;SDS011;10404;51.468;6.762;2023-07-24T14:34:33;2.65;;;2.13;;
20491;SDS011;10404;51.468;6.762;2023-07-24T14:36:59;2.70;;;2.10;;
20491;SDS011;10404;51.468;6.762;2023-07-24T14:39:25;2.58;;;1.98;;
20491;SDS011;10404;51.468;6.762;2023-07-24T14:41:50;2.20;;;1.70;;
20491;SDS011;10404;51.468;6.762;2023-07-24T14:44:16;3.10;;;2.17;;
20491;SDS011;10404;51.468;6.762;2023-07-24T14:46:42;2.50;;;1.88;;
20491;SDS011;10404;51.468;6.762;2023-07-24T14:49:07;2.83;;;1.60;;
20491;SDS011;10404;51.468;6.762;2023-07-24T14:51:33;3.38;;;2.20;;
20491;SDS011;10404;51.468;6.762;2023-07-24T14:53:58;2.30;;;1.80;;
20491;SDS011;10404;51.468;6.762;2023-07-24T14:56:24;2.10;;;1.90;;
20491;SDS011;10404;51.468;6.762;2023-07-24T14:58:50;2.03;;;1.80;;